Latest Weather Observations for Hobart Airport

IDT60901

Issued at 2:11 pm EST Saturday 23 May 2015 (issued every 10 minutes, with the page automatically refreshed every 10 minutes)

About weather observations | Map of Hobart area stations | Latest observations for Hobart area | Other Formats
Station Details ID: 094008 Name: HOBART AIRPORT Lat: -42.83 Lon: 147.50 Height: 4.0 m
Data from the previous 72 hours. | See also: Recent months at Hobart Airport
Date/Time
EST
Tmp

°C
App
Tmp
°C
Dew
Point
°C
Rel
Hum
%
Delta-T

°C
Wind Press
QNH
hPa
Press
MSL
hPa
Rain
since
9 am
mm
Dir
 
Spd
km/h
Gust
km/h
Spd
kts
Gust
kts
23/02:00pm 12.4 7.9 1.9 48 4.5 SW 15 19 8 10 1027.6 1027.7 0.0
23/01:30pm 12.6 7.7 2.1 49 4.5 SW 17 30 9 16 1027.6 1027.7 0.0
23/01:00pm 12.5 7.0 1.7 47 4.6 SW 20 28 11 15 1027.7 1027.8 0.0
23/12:30pm 12.5 7.2 2.0 48 4.5 SW 19 28 10 15 1028.0 1028.1 0.0
23/12:00pm 13.0 8.9 2.4 48 4.6 SW 13 19 7 10 1028.0 1028.1 0.0
23/11:30am 13.0 8.9 2.4 48 4.6 W 13 19 7 10 1028.3 1028.4 0.0
23/11:00am 12.9 8.0 2.0 47 4.7 W 17 22 9 12 1028.4 1028.5 0.0
23/10:30am 12.1 8.1 2.6 52 4.1 NW 13 17 7 9 1028.6 1028.7 0.0
23/10:00am 11.5 8.0 3.3 57 3.6 NNW 11 17 6 9 1028.5 1028.6 0.0
23/08:30am 3.9 1.1 1.9 87 0.8 W 6 7 3 4 1028.5 1028.6 0.2
23/08:00am 2.8 -0.4 0.7 86 0.8 WSW 7 9 4 5 1028.3 1028.4 0.2
23/07:30am 2.6 -0.9 1.0 89 0.6 WNW 9 15 5 8 1028.1 1028.2 0.2
23/07:00am 0.8 -3.0 -0.5 91 0.5 NW 9 9 5 5 1028.1 1028.2 0.2
23/06:30am 1.0 -1.0 -0.4 90 0.5 CALM 0 0 0 0 1027.8 1027.9 0.2
23/05:30am 4.0 0.5 1.4 83 1.0 W 9 13 5 7 1027.4 1027.5 0.2
23/05:00am 0.9 -1.2 -0.8 88 0.6 CALM 0 7 0 4 1027.3 1027.4 0.2
23/04:30am -0.4 -2.5 -1.0 96 0.2 CALM 0 0 0 0 1027.2 1027.3 0.2
23/04:00am 1.6 -1.7 0.2 90 0.5 W 7 9 4 5 1027.0 1027.1 0.2
23/03:30am 1.1 -2.3 -0.3 90 0.5 WSW 7 9 4 5 1027.2 1027.3 0.2
23/03:00am 5.2 2.1 1.4 76 1.5 W 7 11 4 6 1027.4 1027.5 0.2
23/02:30am 2.0 -1.3 0.1 87 0.7 WSW 7 9 4 5 1027.7 1027.8 0.2
23/02:00am 1.5 -2.6 0.1 90 0.5 WNW 11 13 6 7 1027.6 1027.7 0.2
23/01:30am 1.9 -0.8 0.0 87 0.7 SW 4 7 2 4 1027.6 1027.7 0.2
23/12:30am 2.6 0.6 0.2 84 0.9 CALM 0 0 0 0 1027.7 1027.8 0.2
 
Date/Time
EST
Tmp

°C
App
Tmp
°C
Dew
Point
°C
Rel
Hum
%
Delta-T

°C
Wind Press
QNH
hPa
Press
MSL
hPa
Rain
since
9 am
mm
Dir
 
Spd
km/h
Gust
km/h
Spd
kts
Gust
kts
22/11:30pm 2.9 1.1 1.3 89 0.6 CALM 0 0 0 0 1027.9 1028.0 0.2
22/11:00pm 2.3 0.1 1.2 92 0.4 NW 2 7 1 4 1027.9 1028.0 0.2
22/10:30pm 3.7 1.6 1.4 85 0.9 SW 2 6 1 3 1027.9 1028.0 0.2
22/10:00pm 5.1 1.8 2.4 83 1.1 WSW 9 11 5 6 1027.9 1028.0 0.2
22/09:30pm 4.3 2.6 2.0 85 0.9 CALM 0 0 0 0 1027.7 1027.8 0.2
22/09:00pm 6.9 3.3 3.1 77 1.6 NW 11 13 6 7 1027.6 1027.7 0.2
22/08:30pm 8.2 5.4 2.1 65 2.5 NW 6 9 3 5 1027.5 1027.6 0.2
22/08:00pm 5.6 2.3 2.4 80 1.3 NE 9 11 5 6 1027.3 1027.4 0.2
22/07:30pm 8.6 4.9 2.4 65 2.6 WSW 11 13 6 7 1027.2 1027.3 0.2
22/07:00pm 7.4 5.0 2.3 70 2.1 NNW 4 9 2 5 1027.1 1027.2 0.2
22/05:30pm 9.6 5.2 2.5 61 3.0 WNW 15 20 8 11 1026.5 1026.6 0.2
22/05:00pm 10.8 6.3 2.3 55 3.6 WNW 15 19 8 10 1026.3 1026.4 0.2
22/04:30pm 11.8 7.7 2.2 52 4.1 WNW 13 15 7 8 1026.2 1026.3 0.2
22/04:00pm 12.5 7.6 2.0 48 4.5 W 17 20 9 11 1026.2 1026.3 0.2
22/03:30pm 13.3 8.0 1.9 46 4.9 W 19 24 10 13 1025.9 1026.0 0.2
22/03:00pm 13.6 8.3 2.1 45 5.0 W 19 26 10 14 1025.8 1025.9 0.2
22/02:30pm 13.8 9.3 2.1 45 5.1 WNW 15 20 8 11 1025.7 1025.8 0.2
22/02:00pm 13.7 7.9 2.2 45 5.0 NW 22 30 12 16 1025.7 1025.8 0.2
22/01:30pm 13.6 8.4 2.7 47 4.8 WNW 19 26 10 14 1025.9 1026.0 0.2
22/01:00pm 13.7 8.5 2.2 45 5.0 WNW 19 28 10 15 1026.1 1026.2 0.2
22/12:30pm 13.2 8.3 2.1 47 4.8 NW 17 26 9 14 1026.4 1026.5 0.0
22/12:00pm 12.6 7.2 1.5 46 4.7 WNW 19 26 10 14 1027.0 1027.1 0.0
22/11:30am 12.1 7.4 1.1 47 4.6 NW 15 20 8 11 1027.5 1027.6 0.0
22/11:00am 11.7 7.0 1.1 48 4.4 NW 15 19 8 10 1027.9 1028.0 0.0
22/10:30am 11.5 7.7 1.5 50 4.2 NW 11 19 6 10 1028.2 1028.3 0.0
22/10:00am 10.1 6.4 2.3 58 3.3 N 11 13 6 7 1028.2 1028.3 0.0
22/09:30am 9.0 6.1 2.8 65 2.6 NNW 7 11 4 6 1028.4 1028.5 0.0
22/09:00am 8.2 4.9 2.7 68 2.3 NW 9 11 5 6 1028.4 1028.5 0.0
22/08:30am 6.4 2.7 2.5 76 1.6 NW 11 13 6 7 1028.3 1028.4 0.0
22/08:00am 6.8 3.4 2.1 72 1.9 NNW 9 13 5 7 1028.4 1028.5 0.0
22/07:30am 7.0 3.3 2.4 72 1.9 NW 11 15 6 8 1028.4 1028.5 0.0
22/07:00am 6.4 2.8 3.0 79 1.4 NNW 11 15 6 8 1028.2 1028.3 0.0
22/06:30am 6.5 3.1 1.8 72 1.9 WNW 9 13 5 7 1028.0 1028.1 0.0
22/06:00am 6.9 3.2 2.2 72 1.9 NW 11 15 6 8 1027.8 1027.9 0.0
22/05:30am 7.5 4.7 3.2 74 1.8 NNE 7 11 4 6 1027.8 1027.9 0.0
22/05:00am 8.0 6.3 1.6 64 2.6 CALM 0 0 0 0 1028.0 1028.1 0.0
22/04:30am 7.9 6.4 2.9 70 2.1 CALM 0 6 0 3 1027.9 1028.0 0.0
22/04:00am 8.2 5.3 1.6 63 2.7 WSW 6 9 3 5 1027.7 1027.8 0.0
22/03:30am 8.2 4.8 2.1 65 2.5 WNW 9 11 5 6 1027.7 1027.8 0.0
22/03:00am 8.5 5.1 1.9 63 2.7 NNW 9 11 5 6 1027.8 1027.9 0.0
22/02:30am 8.8 4.6 1.4 60 3.0 W 13 17 7 9 1028.1 1028.2 0.0
22/02:00am 8.9 4.6 1.3 59 3.1 W 13 15 7 8 1028.2 1028.3 0.0
22/01:30am 9.0 4.4 1.4 59 3.1 WNW 15 17 8 9 1028.2 1028.3 0.0
22/01:00am 9.1 4.8 0.9 56 3.3 W 13 17 7 9 1028.3 1028.4 0.0
22/12:30am 9.3 4.6 1.2 57 3.3 WSW 15 20 8 11 1028.4 1028.5 0.0
22/12:00am 9.5 4.0 0.9 55 3.5 SW 19 24 10 13 1028.5 1028.6 0.0
 
Date/Time
EST
Tmp

°C
App
Tmp
°C
Dew
Point
°C
Rel
Hum
%
Delta-T

°C
Wind Press
QNH
hPa
Press
MSL
hPa
Rain
since
9 am
mm
Dir
 
Spd
km/h
Gust
km/h
Spd
kts
Gust
kts
21/11:30pm 9.2 5.6 3.1 65 2.6 SW 11 15 6 8 1028.5 1028.6 0.0
21/11:00pm 9.4 4.9 2.2 61 3.0 SW 15 19 8 10 1028.4 1028.5 0.0
21/10:30pm 9.1 5.6 3.5 68 2.4 SW 11 15 6 8 1028.4 1028.5 0.0
21/10:00pm 9.1 5.7 3.8 69 2.3 SW 11 15 6 8 1028.6 1028.7 0.0
21/09:30pm 9.4 6.7 3.6 67 2.5 SW 7 11 4 6 1028.6 1028.7 0.0
21/09:00pm 9.4 6.4 4.1 69 2.3 SW 9 11 5 6 1028.5 1028.6 0.0
21/08:30pm 9.3 6.0 4.8 73 2.0 SW 11 15 6 8 1028.5 1028.6 0.0
21/08:00pm 9.4 6.5 4.7 72 2.1 SW 9 13 5 7 1028.4 1028.5 0.0
21/07:30pm 9.5 6.6 4.5 71 2.2 SSW 9 13 5 7 1028.3 1028.4 0.0
21/07:00pm 9.3 6.4 4.5 72 2.1 SW 9 11 5 6 1028.0 1028.1 0.0
21/06:30pm 9.6 6.7 4.9 72 2.1 WSW 9 15 5 8 1027.7 1027.8 0.0
21/06:00pm 9.6 6.7 4.9 72 2.1 WSW 9 11 5 6 1027.5 1027.6 0.0
21/05:30pm 9.7 7.3 5.3 74 2.0 W 7 7 4 4 1027.2 1027.3 0.0
21/05:00pm 9.9 7.1 5.2 72 2.1 SSW 9 11 5 6 1027.0 1027.1 0.0
21/04:30pm 10.1 7.3 5.0 70 2.3 S 9 13 5 7 1026.8 1026.9 0.0
21/04:00pm 10.4 6.3 4.6 67 2.6 S 15 19 8 10 1026.5 1026.6 0.0
21/03:30pm 10.5 6.3 3.9 63 2.9 SSW 15 20 8 11 1026.3 1026.4 0.0
21/03:00pm 10.7 7.0 4.4 65 2.8 SSW 13 17 7 9 1026.2 1026.3 0.0
21/02:30pm 10.6 7.1 5.3 70 2.4 SSE 13 15 7 8 1026.1 1026.2 0.0
21/02:00pm 10.4 5.7 6.1 75 2.0 SSE 20 26 11 14 1025.9 1026.0 0.0
21/01:30pm 11.3 6.6 1.2 50 4.2 SSW 15 19 8 10 1025.7 1025.8 0.0
21/01:00pm 11.3 6.8 2.4 54 3.8 SW 15 19 8 10 1025.7 1025.8 0.0
21/12:30pm 11.2 6.9 3.2 58 3.5 WSW 15 20 8 11 1025.9 1026.0 0.0
21/12:00pm 10.7 6.8 3.3 60 3.2 SW 13 17 7 9 1026.1 1026.2 0.0
21/11:30am 10.5 6.4 4.4 66 2.7 WSW 15 19 8 10 1026.1 1026.2 0.0
21/11:00am 10.5 5.9 3.9 63 2.9 SW 17 22 9 12 1026.0 1026.1 0.0
21/10:30am 10.2 6.2 5.1 70 2.3 WSW 15 19 8 10 1025.8 1025.9 0.0
21/10:00am 9.5 4.9 5.5 76 1.8 WSW 19 26 10 14 1025.4 1025.5 0.0
21/09:30am 8.5 4.9 5.1 79 1.5 WNW 13 17 7 9 1025.2 1025.3 0.0
21/09:00am 7.9 3.5 4.9 81 1.3 NW 17 20 9 11 1024.7 1024.8 0.0
21/08:30am 7.8 3.8 4.8 81 1.3 NW 15 17 8 9 1024.4 1024.5 0.0
21/08:00am 8.0 3.7 5.3 83 1.2 WNW 17 19 9 10 1024.0 1024.1 0.0
21/07:49am 8.0 4.8 5.3 83 1.2 WNW 11 17 6 9 1023.8 1023.9 0.0
21/07:33am 7.5 4.3 5.0 84 1.1 WNW 11 17 6 9 1023.6 1023.7 0.0
21/07:30am 7.5 3.9 5.0 84 1.1 NW 13 19 7 10 1023.5 1023.6 0.0
21/07:00am 7.2 3.1 4.4 82 1.2 NW 15 17 8 9 1022.8 1022.8 0.0
21/06:30am 6.6 3.2 4.0 83 1.1 NW 11 13 6 7 1022.4 1022.4 0.0
21/06:00am 6.4 2.9 3.3 80 1.3 WNW 11 15 6 8 1021.8 1021.8 0.0
21/05:40am 6.5 2.8 2.3 74 1.7 WNW 11 15 6 8 1021.5 1021.5 0.0
21/05:30am 6.3 2.3 2.7 78 1.5 WNW 13 15 7 8 1021.2 1021.2 0.0
21/05:00am 5.2 1.5 2.2 81 1.2 WNW 11 13 6 7 1020.6 1020.6 0.0
21/04:30am 4.9 1.1 1.9 81 1.2 NW 11 15 6 8 1020.2 1020.2 0.0
21/04:00am 5.2 1.5 2.2 81 1.2 WNW 11 13 6 7 1019.8 1019.8 0.0
21/03:30am 5.6 1.9 2.4 80 1.3 NNW 11 17 6 9 1019.6 1019.6 0.0
21/03:00am 6.2 2.1 2.3 76 1.6 NNW 13 19 7 10 1019.3 1019.3 0.0
21/02:30am 6.4 2.3 2.5 76 1.6 NW 13 19 7 10 1019.3 1019.3 0.0
21/02:00am 6.0 2.7 2.3 77 1.5 NW 9 13 5 7 1019.2 1019.2 0.0
21/01:30am 6.6 1.8 2.5 75 1.7 WNW 17 22 9 12 1018.8 1018.8 0.0
21/01:00am 5.4 2.6 3.2 86 0.9 WNW 7 9 4 5 1018.7 1018.7 0.0
21/12:30am 5.9 2.2 4.3 89 0.7 WNW 13 15 7 8 1018.3 1018.3 0.0
21/12:00am 5.8 2.9 4.9 94 0.4 N 9 13 5 7 1018.1 1018.1 0.0
 
Date/Time
EST
Tmp

°C
App
Tmp
°C
Dew
Point
°C
Rel
Hum
%
Delta-T

°C
Wind Press
QNH
hPa
Press
MSL
hPa
Rain
since
9 am
mm
Dir
 
Spd
km/h
Gust
km/h
Spd
kts
Gust
kts
20/11:30pm 7.5 5.4 6.6 94 0.4 WSW 7 9 4 5 1018.2 1018.2 0.0
20/11:00pm 7.7 5.2 6.6 93 0.5 NW 9 13 5 7 1018.0 1018.0 0.0
20/10:30pm 8.2 5.2 6.2 87 0.9 WNW 11 13 6 7 1017.7 1017.7 0.0
20/10:00pm 8.4 5.5 4.8 78 1.6 SW 9 13 5 7 1017.7 1017.7 0.0
20/09:30pm 8.6 5.9 5.5 81 1.4 S 9 13 5 7 1017.5 1017.5 0.0
20/09:00pm 8.4 5.9 6.4 87 0.9 SSW 9 9 5 5 1017.2 1017.2 0.0
20/08:30pm 8.4 6.2 6.4 87 0.9 SSE 7 13 4 7 1016.8 1016.8 0.0
20/08:00pm 8.8 5.3 5.5 80 1.5 S 13 17 7 9 1016.5 1016.5 0.0
20/07:30pm 8.8 5.7 5.5 80 1.5 SSW 11 15 6 8 1016.1 1016.1 0.0
20/07:00pm 8.8 6.0 5.0 77 1.7 S 9 11 5 6 1015.7 1015.7 0.0
20/06:30pm 8.8 6.0 5.0 77 1.7 SSW 9 11 5 6 1015.3 1015.3 0.0
20/06:00pm 8.8 6.3 5.0 77 1.7 S 7 11 4 6 1014.5 1014.5 0.0
20/05:30pm 8.9 5.4 5.4 79 1.6 SSW 13 19 7 10 1014.3 1014.3 0.0
20/05:00pm 8.9 6.5 7.0 88 0.9 S 9 11 5 6 1014.0 1014.0 0.0
20/04:30pm 8.7 6.0 7.2 90 0.7 S 11 17 6 9 1013.7 1013.7 0.0
20/04:24pm 8.6 5.1 7.3 91 0.6 S 15 19 8 10 1013.7 1013.7 0.0
20/04:00pm 9.1 5.8 8.1 93 0.5 SSE 15 20 8 11 1013.5 1013.5 0.0
20/03:51pm 9.4 6.0 7.7 89 0.8 S 15 20 8 11 1013.4 1013.4 0.0
20/03:30pm 9.9 5.5 7.4 84 1.2 SSE 20 28 11 15 1013.4 1013.4 0.0
20/03:00pm 10.3 5.9 6.7 78 1.7 S 19 26 10 14 1013.0 1013.0 0.0
20/02:59pm 10.3 5.9 6.7 78 1.7 S 19 26 10 14 1013.0 1013.0 0.0
20/02:30pm 10.6 6.0 5.8 72 2.2 SSW 19 24 10 13 1012.5 1012.5 0.0

Latest Capital City Observations: Canberra | Sydney | Melbourne | Brisbane | Adelaide | Perth | Hobart | Darwin

Other Formats:

Comma delimited format used in spreadsheet applications
http://www.bom.gov.au/fwo/IDT60901/IDT60901.94975.axf

JavaScript Object Notation format (JSON) in row-major order
http://www.bom.gov.au/fwo/IDT60901/IDT60901.94975.json